Mini Oiri Solo Sail — FAD6452 — position and weather

sailwx.info

Track history (hours):
 
Tides and Currents Weather Stations Pressure Air Temp Water Temp Dewpoint Dewpoint Depression Visibility Wind Speed Wind Dir Waves Ship Positions

Mini Oiri Solo Sail

Last reported at 2018-May-22 17:30 UTC. Time now 2018-May-22 17:55 UTC.
Position N 47°35' W 003°14'.

Length 6 m.

Type: Sailing vessel. MMSI: 227414390.

Date/timePositionNaut miles runAvg speedWind from/ knotsBaromVisibWave heightAir tempDewpointWater temp
2018-May-22 17:30N 47°35' W 003°14'2 4.9
2018-May-22 17:00N 47°33' W 003°13'3 5.3
2018-May-22 16:30N 47°31' W 003°10'2 4.7
2018-May-22 16:00N 47°29' W 003°09'3 5.1
2018-May-22 15:30N 47°27' W 003°07'2 4.3
2018-May-22 15:00N 47°26' W 003°04'3 6.2
2018-May-22 14:30N 47°29' W 003°02'4 7.2
2018-May-22 14:00N 47°32' W 003°01'1 1.4
2018-May-22 13:30N 47°33' W 002°60'3 5.2
2018-May-22 13:00N 47°30' W 002°59'3 6.8
2018-May-22 12:30N 47°27' W 002°57'3 5.7
2018-May-22 12:00N 47°24' W 002°57'3 5.8
2018-May-22 11:30N 47°26' W 003°01'2 5.0
2018-May-22 11:00N 47°28' W 003°02'2 4.8
2018-May-22 10:30N 47°30' W 003°03'2 3.5
2018-May-22 09:58N 47°32' W 003°03'1 1.2
2018-May-22 09:30N 47°33' W 003°02'1 2.1
2018-May-22 09:00N 47°33' W 003°00'1 1.3
2018-May-22 08:30N 47°33' W 003°01'2 3.1
2018-May-22 08:00N 47°35' W 003°01'1 1.1
2018-May-22 07:22N 47°35' W 003°02'0 0.0
2018-May-21 15:52N 47°35' W 003°02'0 0.0
2018-May-21 15:28N 47°35' W 003°02'0 0.0
2018-May-21 14:49N 47°35' W 003°02'0 0.0
2018-May-21 14:28N 47°35' W 003°02'0 0.0
2018-May-21 13:55N 47°35' W 003°02'0 0.0
2018-May-21 12:49N 47°35' W 003°02'0 0.0
2018-May-21 12:25N 47°35' W 003°02'0 0.0
2018-May-21 11:55N 47°35' W 003°02'0 0.0
2018-May-21 11:25N 47°35' W 003°02'0 0.0
2018-May-21 10:55N 47°35' W 003°02'0 0.0
2018-May-21 10:28N 47°35' W 003°02'0 0.0
2018-May-21 09:55N 47°35' W 003°02'0 0.0
2018-May-21 09:13N 47°35' W 003°02'0 0.0
2018-May-21 08:55N 47°35' W 003°02'0 0.0
2018-May-21 08:28N 47°35' W 003°02'0 0.0
2018-May-21 07:49N 47°35' W 003°02'0 0.0
2018-May-21 07:25N 47°35' W 003°02'0 0.0
2018-May-21 06:52N 47°35' W 003°02'0 0.0
2018-May-21 06:28N 47°35' W 003°02'0 0.0
2018-May-21 05:25N 47°35' W 003°02'0 0.0
2018-May-21 04:55N 47°35' W 003°02'0 0.0
2018-May-21 04:25N 47°35' W 003°02'0 0.0
2018-May-21 03:58N 47°35' W 003°02'0 0.0
2018-May-21 03:16N 47°35' W 003°02'0 0.0
2018-May-21 02:49N 47°35' W 003°02'0 0.0
2018-May-21 02:25N 47°35' W 003°02'0 0.0
2018-May-21 01:49N 47°35' W 003°02'0 0.0
2018-May-21 01:28N 47°35' W 003°02'0 0.0
2018-May-20 23:49N 47°35' W 003°02'0 0.0
2018-May-20 23:25N 47°35' W 003°02'0 0.0
2018-May-20 22:55N 47°35' W 003°02'0 0.0
2018-May-20 22:22N 47°35' W 003°02'0 0.0
2018-May-20 21:37N 47°35' W 003°02'0 0.0
2018-May-20 21:22N 47°35' W 003°02'0 0.0
2018-May-20 20:55N 47°35' W 003°02'0 0.0
2018-May-20 20:28N 47°35' W 003°02'0 0.0
2018-May-20 19:55N 47°35' W 003°02'0 0.0
2018-May-20 18:55N 47°35' W 003°02'0 0.0
2018-May-20 18:22N 47°35' W 003°02'0 0.0
2018-May-20 17:58N 47°35' W 003°02'0 0.0
2018-May-20 17:28N 47°35' W 003°02'0 0.0
2018-May-20 16:52N 47°35' W 003°02'0 0.0
2018-May-20 16:25N 47°35' W 003°02'0 0.0
2018-May-20 15:53N 47°35' W 003°02'0 0.0
2018-May-20 15:29N 47°35' W 003°02'1 1.6
2018-May-20 15:01N 47°35' W 003°01'3 5.1
2018-May-20 14:30N 47°32' W 002°59'2 3.6
2018-May-20 14:01N 47°33' W 003°02'0 0.2
2018-May-20 13:31N 47°33' W 003°02'1 2.4
2018-May-20 13:00N 47°34' W 003°01'1 2.0
2018-May-20 12:23N 47°35' W 003°02'0 0.0
2018-May-20 11:53N 47°35' W 003°02'0 0.0
2018-May-20 11:26N 47°35' W 003°02'0 0.0
2018-May-20 10:44N 47°35' W 003°02'0 0.0
2018-May-20 10:23N 47°35' W 003°02'0 0.0
2018-May-20 09:56N 47°35' W 003°02'0 0.0
2018-May-20 09:02N 47°35' W 003°02'0 0.0
2018-May-20 08:59N 47°35' W 003°02'0 0.0
2018-May-20 08:29N 47°35' W 003°02'0 0.0
2018-May-20 07:14N 47°35' W 003°02'0 0.0
2018-May-20 06:50N 47°35' W 003°02'0 0.0
2018-May-20 05:50N 47°35' W 003°02'0 0.0
2018-May-20 05:26N 47°35' W 003°02'0 0.0
2018-May-19 21:35N 47°35' W 003°02'0 0.0
2018-May-19 18:41N 47°35' W 003°02'0 0.0
2018-May-19 18:26N 47°35' W 003°02'0 0.0
2018-May-19 17:56N 47°35' W 003°02'0 0.0
2018-May-19 17:26N 47°35' W 003°02'0 0.0
2018-May-19 16:29N 47°35' W 003°02'0 0.0
2018-May-19 15:53N 47°35' W 003°02'0 0.0
2018-May-19 15:29N 47°35' W 003°02'0 0.0
2018-May-19 14:37N 47°35' W 003°02'0 0.0
2018-May-19 14:10N 47°35' W 003°02'0 0.0
2018-May-19 13:52N 47°35' W 003°02'  
2018-May-12 18:28N 47°35' W 003°02'0 0.0
2018-May-12 18:01N 47°35' W 003°02'  
Track history (hours):
 
Tides and Currents Weather Stations Pressure Air Temp Water Temp Dewpoint Dewpoint Depression Visibility Wind Speed Wind Dir Waves Ship Positions

Mini Oiri Solo Sail

Last reported at 2018-May-22 17:30 UTC. Time now 2018-May-22 17:55 UTC.
Position N 47°35' W 003°14'.

Length 6 m.

Type: Sailing vessel. MMSI: 227414390.

Date/timePositionNaut miles runAvg speedWind from/ knotsBaromVisibWave heightAir tempDewpointWater temp
2018-May-22 17:30N 47°35' W 003°14'2 4.9
2018-May-22 17:00N 47°33' W 003°13'3 5.3
2018-May-22 16:30N 47°31' W 003°10'2 4.7
2018-May-22 16:00N 47°29' W 003°09'3 5.1
2018-May-22 15:30N 47°27' W 003°07'2 4.3
2018-May-22 15:00N 47°26' W 003°04'3 6.2
2018-May-22 14:30N 47°29' W 003°02'4 7.2
2018-May-22 14:00N 47°32' W 003°01'1 1.4
2018-May-22 13:30N 47°33' W 002°60'3 5.2
2018-May-22 13:00N 47°30' W 002°59'3 6.8
2018-May-22 12:30N 47°27' W 002°57'3 5.7
2018-May-22 12:00N 47°24' W 002°57'3 5.8
2018-May-22 11:30N 47°26' W 003°01'2 5.0
2018-May-22 11:00N 47°28' W 003°02'2 4.8
2018-May-22 10:30N 47°30' W 003°03'2 3.5
2018-May-22 09:58N 47°32' W 003°03'1 1.2
2018-May-22 09:30N 47°33' W 003°02'1 2.1
2018-May-22 09:00N 47°33' W 003°00'1 1.3
2018-May-22 08:30N 47°33' W 003°01'2 3.1
2018-May-22 08:00N 47°35' W 003°01'1 1.1
2018-May-22 07:22N 47°35' W 003°02'0 0.0
2018-May-21 15:52N 47°35' W 003°02'0 0.0
2018-May-21 15:28N 47°35' W 003°02'0 0.0
2018-May-21 14:49N 47°35' W 003°02'0 0.0
2018-May-21 14:28N 47°35' W 003°02'0 0.0
2018-May-21 13:55N 47°35' W 003°02'0 0.0
2018-May-21 12:49N 47°35' W 003°02'0 0.0
2018-May-21 12:25N 47°35' W 003°02'0 0.0
2018-May-21 11:55N 47°35' W 003°02'0 0.0
2018-May-21 11:25N 47°35' W 003°02'0 0.0
2018-May-21 10:55N 47°35' W 003°02'0 0.0
2018-May-21 10:28N 47°35' W 003°02'0 0.0
2018-May-21 09:55N 47°35' W 003°02'0 0.0
2018-May-21 09:13N 47°35' W 003°02'0 0.0
2018-May-21 08:55N 47°35' W 003°02'0 0.0
2018-May-21 08:28N 47°35' W 003°02'0 0.0
2018-May-21 07:49N 47°35' W 003°02'0 0.0
2018-May-21 07:25N 47°35' W 003°02'0 0.0
2018-May-21 06:52N 47°35' W 003°02'0 0.0
2018-May-21 06:28N 47°35' W 003°02'0 0.0
2018-May-21 05:25N 47°35' W 003°02'0 0.0
2018-May-21 04:55N 47°35' W 003°02'0 0.0
2018-May-21 04:25N 47°35' W 003°02'0 0.0
2018-May-21 03:58N 47°35' W 003°02'0 0.0
2018-May-21 03:16N 47°35' W 003°02'0 0.0
2018-May-21 02:49N 47°35' W 003°02'0 0.0
2018-May-21 02:25N 47°35' W 003°02'0 0.0
2018-May-21 01:49N 47°35' W 003°02'0 0.0
2018-May-21 01:28N 47°35' W 003°02'0 0.0
2018-May-20 23:49N 47°35' W 003°02'0 0.0
2018-May-20 23:25N 47°35' W 003°02'0 0.0
2018-May-20 22:55N 47°35' W 003°02'0 0.0
2018-May-20 22:22N 47°35' W 003°02'0 0.0
2018-May-20 21:37N 47°35' W 003°02'0 0.0
2018-May-20 21:22N 47°35' W 003°02'0 0.0
2018-May-20 20:55N 47°35' W 003°02'0 0.0
2018-May-20 20:28N 47°35' W 003°02'0 0.0
2018-May-20 19:55N 47°35' W 003°02'0 0.0
2018-May-20 18:55N 47°35' W 003°02'0 0.0
2018-May-20 18:22N 47°35' W 003°02'0 0.0
2018-May-20 17:58N 47°35' W 003°02'0 0.0
2018-May-20 17:28N 47°35' W 003°02'0 0.0
2018-May-20 16:52N 47°35' W 003°02'0 0.0
2018-May-20 16:25N 47°35' W 003°02'0 0.0
2018-May-20 15:53N 47°35' W 003°02'0 0.0
2018-May-20 15:29N 47°35' W 003°02'1 1.6
2018-May-20 15:01N 47°35' W 003°01'3 5.1
2018-May-20 14:30N 47°32' W 002°59'2 3.6
2018-May-20 14:01N 47°33' W 003°02'0 0.2
2018-May-20 13:31N 47°33' W 003°02'1 2.4
2018-May-20 13:00N 47°34' W 003°01'1 2.0
2018-May-20 12:23N 47°35' W 003°02'0 0.0
2018-May-20 11:53N 47°35' W 003°02'0 0.0
2018-May-20 11:26N 47°35' W 003°02'0 0.0
2018-May-20 10:44N 47°35' W 003°02'0 0.0
2018-May-20 10:23N 47°35' W 003°02'0 0.0
2018-May-20 09:56N 47°35' W 003°02'0 0.0
2018-May-20 09:02N 47°35' W 003°02'0 0.0
2018-May-20 08:59N 47°35' W 003°02'0 0.0
2018-May-20 08:29N 47°35' W 003°02'0 0.0
2018-May-20 07:14N 47°35' W 003°02'0 0.0
2018-May-20 06:50N 47°35' W 003°02'0 0.0
2018-May-20 05:50N 47°35' W 003°02'0 0.0
2018-May-20 05:26N 47°35' W 003°02'0 0.0
2018-May-19 21:35N 47°35' W 003°02'0 0.0
2018-May-19 18:41N 47°35' W 003°02'0 0.0
2018-May-19 18:26N 47°35' W 003°02'0 0.0
2018-May-19 17:56N 47°35' W 003°02'0 0.0
2018-May-19 17:26N 47°35' W 003°02'0 0.0
2018-May-19 16:29N 47°35' W 003°02'0 0.0
2018-May-19 15:53N 47°35' W 003°02'0 0.0
2018-May-19 15:29N 47°35' W 003°02'0 0.0
2018-May-19 14:37N 47°35' W 003°02'0 0.0
2018-May-19 14:10N 47°35' W 003°02'0 0.0
2018-May-19 13:52N 47°35' W 003°02'  
2018-May-12 18:28N 47°35' W 003°02'0 0.0
2018-May-12 18:01N 47°35' W 003°02'  

Dump ship's entire track history